sensor_id;sensor_type;location;lat;lon;timestamp;temperature;humidity
4209;DHT22;36320;48.860;2.380;2023-07-20T00:01:14;22.30;57.80
4209;DHT22;36320;48.860;2.380;2023-07-20T00:03:39;22.30;57.80
4209;DHT22;36320;48.860;2.380;2023-07-20T00:06:05;22.20;58.00
4209;DHT22;36320;48.860;2.380;2023-07-20T00:08:31;22.20;58.10
4209;DHT22;36320;48.860;2.380;2023-07-20T00:10:57;22.20;58.20
4209;DHT22;36320;48.860;2.380;2023-07-20T00:13:24;22.20;58.20
4209;DHT22;36320;48.860;2.380;2023-07-20T00:15:50;22.20;58.10
4209;DHT22;36320;48.860;2.380;2023-07-20T00:18:16;22.10;58.10
4209;DHT22;36320;48.860;2.380;2023-07-20T00:20:42;22.10;58.40
4209;DHT22;36320;48.860;2.380;2023-07-20T00:23:09;22.10;58.50
4209;DHT22;36320;48.860;2.380;2023-07-20T00:25:35;22.10;58.50
4209;DHT22;36320;48.860;2.380;2023-07-20T00:28:01;22.20;58.40
4209;DHT22;36320;48.860;2.380;2023-07-20T00:30:27;22.30;58.20
4209;DHT22;36320;48.860;2.380;2023-07-20T00:32:53;22.20;58.20
4209;DHT22;36320;48.860;2.380;2023-07-20T00:35:19;22.30;58.40
4209;DHT22;36320;48.860;2.380;2023-07-20T00:37:45;22.20;58.40
4209;DHT22;36320;48.860;2.380;2023-07-20T00:40:11;22.10;58.50
4209;DHT22;36320;48.860;2.380;2023-07-20T00:42:38;22.10;58.60
4209;DHT22;36320;48.860;2.380;2023-07-20T00:45:05;22.10;58.70
4209;DHT22;36320;48.860;2.380;2023-07-20T00:47:31;22.20;58.80
4209;DHT22;36320;48.860;2.380;2023-07-20T00:49:58;22.10;58.80
4209;DHT22;36320;48.860;2.380;2023-07-20T00:52:24;22.10;58.90
4209;DHT22;36320;48.860;2.380;2023-07-20T00:54:50;22.20;59.10
4209;DHT22;36320;48.860;2.380;2023-07-20T00:57:17;22.10;59.10
4209;DHT22;36320;48.860;2.380;2023-07-20T00:59:44;22.10;59.10
4209;DHT22;36320;48.860;2.380;2023-07-20T01:02:09;22.00;59.30
4209;DHT22;36320;48.860;2.380;2023-07-20T01:04:35;22.00;59.40
4209;DHT22;36320;48.860;2.380;2023-07-20T01:07:11;22.00;59.40
4209;DHT22;36320;48.860;2.380;2023-07-20T01:09:45;22.10;59.50
4209;DHT22;36320;48.860;2.380;2023-07-20T01:12:33;22.10;59.50
4209;DHT22;36320;48.860;2.380;2023-07-20T01:15:00;22.00;59.50
4209;DHT22;36320;48.860;2.380;2023-07-20T01:17:26;21.90;59.60
4209;DHT22;36320;48.860;2.380;2023-07-20T01:19:51;21.80;60.00
4209;DHT22;36320;48.860;2.380;2023-07-20T01:33:20;21.70;60.90
4209;DHT22;36320;48.860;2.380;2023-07-20T01:35:54;21.70;60.90
4209;DHT22;36320;48.860;2.380;2023-07-20T01:38:21;21.80;60.70
4209;DHT22;36320;48.860;2.380;2023-07-20T01:40:47;21.70;60.60
4209;DHT22;36320;48.860;2.380;2023-07-20T01:43:13;21.80;60.90
4209;DHT22;36320;48.860;2.380;2023-07-20T01:45:39;21.80;61.00
4209;DHT22;36320;48.860;2.380;2023-07-20T01:48:05;21.80;60.70
4209;DHT22;36320;48.860;2.380;2023-07-20T01:50:30;21.90;60.80
4209;DHT22;36320;48.860;2.380;2023-07-20T01:52:56;21.90;60.70
4209;DHT22;36320;48.860;2.380;2023-07-20T01:55:22;21.90;60.70
4209;DHT22;36320;48.860;2.380;2023-07-20T01:57:49;21.80;60.70
4209;DHT22;36320;48.860;2.380;2023-07-20T02:00:15;21.80;61.00
4209;DHT22;36320;48.860;2.380;2023-07-20T02:02:41;21.70;60.90
4209;DHT22;36320;48.860;2.380;2023-07-20T02:05:08;21.70;61.10
4209;DHT22;36320;48.860;2.380;2023-07-20T02:07:33;21.70;62.00
4209;DHT22;36320;48.860;2.380;2023-07-20T02:09:59;21.80;61.20
4209;DHT22;36320;48.860;2.380;2023-07-20T02:12:24;21.80;61.20
4209;DHT22;36320;48.860;2.380;2023-07-20T02:14:50;21.70;61.20
4209;DHT22;36320;48.860;2.380;2023-07-20T02:17:16;21.90;61.30
4209;DHT22;36320;48.860;2.380;2023-07-20T02:19:42;22.00;60.90
4209;DHT22;36320;48.860;2.380;2023-07-20T02:22:08;21.90;60.80
4209;DHT22;36320;48.860;2.380;2023-07-20T02:24:34;21.80;61.00
4209;DHT22;36320;48.860;2.380;2023-07-20T02:27:00;21.80;61.00
4209;DHT22;36320;48.860;2.380;2023-07-20T02:29:25;21.80;61.70
4209;DHT22;36320;48.860;2.380;2023-07-20T02:31:51;21.90;60.90
4209;DHT22;36320;48.860;2.380;2023-07-20T02:34:17;21.90;60.70
4209;DHT22;36320;48.860;2.380;2023-07-20T02:36:43;21.80;60.70
4209;DHT22;36320;48.860;2.380;2023-07-20T02:39:09;21.70;60.90
4209;DHT22;36320;48.860;2.380;2023-07-20T02:41:35;21.80;61.00
4209;DHT22;36320;48.860;2.380;2023-07-20T02:44:00;21.70;61.10
4209;DHT22;36320;48.860;2.380;2023-07-20T02:46:27;21.70;61.00
4209;DHT22;36320;48.860;2.380;2023-07-20T02:48:55;21.60;61.00
4209;DHT22;36320;48.860;2.380;2023-07-20T02:51:21;21.60;61.20
4209;DHT22;36320;48.860;2.380;2023-07-20T02:53:48;21.70;61.20
4209;DHT22;36320;48.860;2.380;2023-07-20T02:56:15;20.20;59.50
4209;DHT22;36320;48.860;2.380;2023-07-20T02:58:41;21.90;61.50
4209;DHT22;36320;48.860;2.380;2023-07-20T03:01:11;21.70;60.90
4209;DHT22;36320;48.860;2.380;2023-07-20T03:03:37;21.60;61.30
4209;DHT22;36320;48.860;2.380;2023-07-20T03:06:04;21.60;61.40
4209;DHT22;36320;48.860;2.380;2023-07-20T03:08:31;21.50;61.60
4209;DHT22;36320;48.860;2.380;2023-07-20T03:10:57;21.40;61.80
4209;DHT22;36320;48.860;2.380;2023-07-20T03:13:23;21.40;61.50
4209;DHT22;36320;48.860;2.380;2023-07-20T03:15:49;21.30;62.60
4209;DHT22;36320;48.860;2.380;2023-07-20T03:18:16;21.30;61.80
4209;DHT22;36320;48.860;2.380;2023-07-20T03:20:42;21.40;61.80
4209;DHT22;36320;48.860;2.380;2023-07-20T03:23:08;21.40;61.80
4209;DHT22;36320;48.860;2.380;2023-07-20T03:25:33;21.40;62.00
4209;DHT22;36320;48.860;2.380;2023-07-20T03:27:59;21.50;62.20
4209;DHT22;36320;48.860;2.380;2023-07-20T03:30:26;21.60;62.10
4209;DHT22;36320;48.860;2.380;2023-07-20T03:32:52;21.60;61.90
4209;DHT22;36320;48.860;2.380;2023-07-20T03:35:17;21.50;62.30
4209;DHT22;36320;48.860;2.380;2023-07-20T03:37:43;21.40;62.40
4209;DHT22;36320;48.860;2.380;2023-07-20T03:40:09;21.30;62.60
4209;DHT22;36320;48.860;2.380;2023-07-20T03:42:35;21.30;62.90
4209;DHT22;36320;48.860;2.380;2023-07-20T03:45:01;21.30;63.20
4209;DHT22;36320;48.860;2.380;2023-07-20T03:47:31;21.30;63.30
4209;DHT22;36320;48.860;2.380;2023-07-20T03:49:57;21.30;63.10
4209;DHT22;36320;48.860;2.380;2023-07-20T03:52:23;21.30;63.20
4209;DHT22;36320;48.860;2.380;2023-07-20T03:54:49;21.40;63.30
4209;DHT22;36320;48.860;2.380;2023-07-20T03:57:16;21.30;63.30
4209;DHT22;36320;48.860;2.380;2023-07-20T03:59:45;21.30;63.40
4209;DHT22;36320;48.860;2.380;2023-07-20T04:02:11;21.30;63.50
4209;DHT22;36320;48.860;2.380;2023-07-20T04:04:37;21.30;64.40
4209;DHT22;36320;48.860;2.380;2023-07-20T04:07:03;21.30;63.80
4209;DHT22;36320;48.860;2.380;2023-07-20T04:09:31;21.30;64.10
4209;DHT22;36320;48.860;2.380;2023-07-20T04:11:56;21.30;64.10
4209;DHT22;36320;48.860;2.380;2023-07-20T04:14:22;21.30;64.10
4209;DHT22;36320;48.860;2.380;2023-07-20T04:16:48;21.10;64.20
4209;DHT22;36320;48.860;2.380;2023-07-20T04:19:14;21.20;64.60
4209;DHT22;36320;48.860;2.380;2023-07-20T04:21:40;21.20;64.60
4209;DHT22;36320;48.860;2.380;2023-07-20T04:24:09;21.30;64.70
4209;DHT22;36320;48.860;2.380;2023-07-20T04:26:36;21.30;64.70
4209;DHT22;36320;48.860;2.380;2023-07-20T04:29:03;21.30;64.70
4209;DHT22;36320;48.860;2.380;2023-07-20T04:31:29;20.50;64.20
4209;DHT22;36320;48.860;2.380;2023-07-20T04:33:58;21.10;65.10
4209;DHT22;36320;48.860;2.380;2023-07-20T04:36:23;21.10;65.30
4209;DHT22;36320;48.860;2.380;2023-07-20T04:38:49;21.20;65.30
4209;DHT22;36320;48.860;2.380;2023-07-20T04:41:15;21.20;65.10
4209;DHT22;36320;48.860;2.380;2023-07-20T04:43:42;21.10;65.40
4209;DHT22;36320;48.860;2.380;2023-07-20T04:46:09;21.10;65.40
4209;DHT22;36320;48.860;2.380;2023-07-20T04:48:35;21.00;66.10
4209;DHT22;36320;48.860;2.380;2023-07-20T04:51:00;21.00;66.20
4209;DHT22;36320;48.860;2.380;2023-07-20T04:53:26;21.10;66.00
4209;DHT22;36320;48.860;2.380;2023-07-20T04:55:53;21.10;66.00
4209;DHT22;36320;48.860;2.380;2023-07-20T04:58:22;21.10;66.60
4209;DHT22;36320;48.860;2.380;2023-07-20T05:00:49;20.90;66.60
4209;DHT22;36320;48.860;2.380;2023-07-20T05:03:15;21.00;67.00
4209;DHT22;36320;48.860;2.380;2023-07-20T05:05:41;21.10;67.00
4209;DHT22;36320;48.860;2.380;2023-07-20T05:08:07;21.10;67.00
4209;DHT22;36320;48.860;2.380;2023-07-20T05:10:32;21.20;67.20
4209;DHT22;36320;48.860;2.380;2023-07-20T05:12:59;21.20;67.20
4209;DHT22;36320;48.860;2.380;2023-07-20T05:15:24;21.20;67.40
4209;DHT22;36320;48.860;2.380;2023-07-20T05:17:51;21.10;67.60
4209;DHT22;36320;48.860;2.380;2023-07-20T05:20:17;21.10;67.80
4209;DHT22;36320;48.860;2.380;2023-07-20T05:22:43;21.30;67.60
4209;DHT22;36320;48.860;2.380;2023-07-20T05:25:09;21.30;67.50
4209;DHT22;36320;48.860;2.380;2023-07-20T05:27:40;21.30;67.50
4209;DHT22;36320;48.860;2.380;2023-07-20T05:30:06;21.20;67.50
4209;DHT22;36320;48.860;2.380;2023-07-20T05:32:34;21.30;67.80
4209;DHT22;36320;48.860;2.380;2023-07-20T05:35:00;21.30;67.60
4209;DHT22;36320;48.860;2.380;2023-07-20T05:37:27;21.40;67.80
4209;DHT22;36320;48.860;2.380;2023-07-20T05:39:52;21.40;67.40
4209;DHT22;36320;48.860;2.380;2023-07-20T05:42:18;21.50;67.50
4209;DHT22;36320;48.860;2.380;2023-07-20T05:44:45;21.60;67.30
4209;DHT22;36320;48.860;2.380;2023-07-20T05:47:12;21.70;67.30
4209;DHT22;36320;48.860;2.380;2023-07-20T05:49:38;21.60;67.60
4209;DHT22;36320;48.860;2.380;2023-07-20T05:52:04;21.80;66.90
4209;DHT22;36320;48.860;2.380;2023-07-20T05:54:30;21.80;66.60
4209;DHT22;36320;48.860;2.380;2023-07-20T05:56:55;21.80;66.40
4209;DHT22;36320;48.860;2.380;2023-07-20T05:59:21;21.70;66.50
4209;DHT22;36320;48.860;2.380;2023-07-20T06:01:49;21.90;66.40
4209;DHT22;36320;48.860;2.380;2023-07-20T06:04:16;21.90;66.10
4209;DHT22;36320;48.860;2.380;2023-07-20T06:06:42;22.00;66.00
4209;DHT22;36320;48.860;2.380;2023-07-20T06:09:08;22.10;66.00
4209;DHT22;36320;48.860;2.380;2023-07-20T06:11:40;22.20;65.70
4209;DHT22;36320;48.860;2.380;2023-07-20T06:14:06;22.20;65.60
4209;DHT22;36320;48.860;2.380;2023-07-20T06:16:32;22.10;65.40
4209;DHT22;36320;48.860;2.380;2023-07-20T06:19:00;22.20;65.30
4209;DHT22;36320;48.860;2.380;2023-07-20T06:21:25;22.10;65.40
4209;DHT22;36320;48.860;2.380;2023-07-20T06:23:51;22.20;65.40
4209;DHT22;36320;48.860;2.380;2023-07-20T06:26:17;22.40;65.20
4209;DHT22;36320;48.860;2.380;2023-07-20T06:28:43;22.50;64.80
4209;DHT22;36320;48.860;2.380;2023-07-20T06:31:08;22.60;64.40
4209;DHT22;36320;48.860;2.380;2023-07-20T06:33:34;22.60;64.20
4209;DHT22;36320;48.860;2.380;2023-07-20T06:36:00;22.50;64.50
4209;DHT22;36320;48.860;2.380;2023-07-20T06:38:26;22.50;64.50
4209;DHT22;36320;48.860;2.380;2023-07-20T06:40:52;22.50;64.20
4209;DHT22;36320;48.860;2.380;2023-07-20T06:43:19;22.60;64.30
4209;DHT22;36320;48.860;2.380;2023-07-20T06:45:45;22.60;64.20
4209;DHT22;36320;48.860;2.380;2023-07-20T06:48:17;22.70;63.80
4209;DHT22;36320;48.860;2.380;2023-07-20T06:50:43;22.50;63.90
4209;DHT22;36320;48.860;2.380;2023-07-20T06:53:09;22.50;64.20
4209;DHT22;36320;48.860;2.380;2023-07-20T06:55:34;22.60;63.80
4209;DHT22;36320;48.860;2.380;2023-07-20T06:58:00;22.40;64.80
4209;DHT22;36320;48.860;2.380;2023-07-20T07:00:26;22.60;64.30
4209;DHT22;36320;48.860;2.380;2023-07-20T07:02:51;22.70;63.80
4209;DHT22;36320;48.860;2.380;2023-07-20T07:05:17;22.80;63.60
4209;DHT22;36320;48.860;2.380;2023-07-20T07:07:43;22.90;63.30
4209;DHT22;36320;48.860;2.380;2023-07-20T07:10:10;23.10;63.10
4209;DHT22;36320;48.860;2.380;2023-07-20T07:12:36;24.80;64.30
4209;DHT22;36320;48.860;2.380;2023-07-20T07:15:03;23.40;62.40
4209;DHT22;36320;48.860;2.380;2023-07-20T07:17:31;23.20;62.20
4209;DHT22;36320;48.860;2.380;2023-07-20T07:20:01;23.20;62.40
4209;DHT22;36320;48.860;2.380;2023-07-20T07:22:26;23.30;62.30
4209;DHT22;36320;48.860;2.380;2023-07-20T07:24:52;23.50;61.80
4209;DHT22;36320;48.860;2.380;2023-07-20T07:27:19;23.80;61.30
4209;DHT22;36320;48.860;2.380;2023-07-20T07:29:46;23.80;61.00
4209;DHT22;36320;48.860;2.380;2023-07-20T07:32:14;23.80;60.90
4209;DHT22;36320;48.860;2.380;2023-07-20T07:34:40;23.60;60.90
4209;DHT22;36320;48.860;2.380;2023-07-20T07:37:06;23.50;60.90
4209;DHT22;36320;48.860;2.380;2023-07-20T07:39:31;23.60;61.00
4209;DHT22;36320;48.860;2.380;2023-07-20T07:41:58;23.80;60.70
4209;DHT22;36320;48.860;2.380;2023-07-20T07:44:24;23.90;60.30
4209;DHT22;36320;48.860;2.380;2023-07-20T07:46:50;24.10;60.00
4209;DHT22;36320;48.860;2.380;2023-07-20T07:49:16;24.20;59.80
4209;DHT22;36320;48.860;2.380;2023-07-20T07:51:42;24.30;59.60
4209;DHT22;36320;48.860;2.380;2023-07-20T07:54:08;24.20;59.30
4209;DHT22;36320;48.860;2.380;2023-07-20T07:56:33;23.90;59.50
4209;DHT22;36320;48.860;2.380;2023-07-20T07:58:59;23.90;59.60
4209;DHT22;36320;48.860;2.380;2023-07-20T08:01:25;24.30;59.30
4209;DHT22;36320;48.860;2.380;2023-07-20T08:03:52;24.40;59.10
4209;DHT22;36320;48.860;2.380;2023-07-20T08:06:18;24.10;58.20
4209;DHT22;36320;48.860;2.380;2023-07-20T08:08:44;24.10;58.10
4209;DHT22;36320;48.860;2.380;2023-07-20T08:11:09;24.10;57.60
4209;DHT22;36320;48.860;2.380;2023-07-20T08:13:36;24.20;57.30
4209;DHT22;36320;48.860;2.380;2023-07-20T08:16:02;24.40;57.70
4209;DHT22;36320;48.860;2.380;2023-07-20T08:18:30;24.50;56.40
4209;DHT22;36320;48.860;2.380;2023-07-20T08:20:56;24.40;56.10
4209;DHT22;36320;48.860;2.380;2023-07-20T08:23:22;24.50;56.00
4209;DHT22;36320;48.860;2.380;2023-07-20T08:25:48;24.50;55.50
4209;DHT22;36320;48.860;2.380;2023-07-20T08:28:15;24.60;55.20
4209;DHT22;36320;48.860;2.380;2023-07-20T08:30:45;24.50;54.70
4209;DHT22;36320;48.860;2.380;2023-07-20T08:33:18;24.30;55.00
4209;DHT22;36320;48.860;2.380;2023-07-20T08:35:45;24.40;54.80
4209;DHT22;36320;48.860;2.380;2023-07-20T08:38:11;24.80;54.20
4209;DHT22;36320;48.860;2.380;2023-07-20T08:40:41;25.10;53.50
4209;DHT22;36320;48.860;2.380;2023-07-20T08:43:08;25.30;53.10
4209;DHT22;36320;48.860;2.380;2023-07-20T08:45:34;25.20;52.60
4209;DHT22;36320;48.860;2.380;2023-07-20T08:48:02;25.10;52.10
4209;DHT22;36320;48.860;2.380;2023-07-20T08:50:30;25.10;51.50
4209;DHT22;36320;48.860;2.380;2023-07-20T08:52:57;25.00;51.60
4209;DHT22;36320;48.860;2.380;2023-07-20T08:55:25;25.30;51.60
4209;DHT22;36320;48.860;2.380;2023-07-20T08:57:56;25.50;51.40
4209;DHT22;36320;48.860;2.380;2023-07-20T09:00:23;25.70;51.40
4209;DHT22;36320;48.860;2.380;2023-07-20T09:02:53;25.70;51.20
4209;DHT22;36320;48.860;2.380;2023-07-20T09:05:20;25.90;50.90
4209;DHT22;36320;48.860;2.380;2023-07-20T09:07:46;25.70;50.50
4209;DHT22;36320;48.860;2.380;2023-07-20T09:10:13;25.60;50.40
4209;DHT22;36320;48.860;2.380;2023-07-20T09:12:41;25.40;49.80
4209;DHT22;36320;48.860;2.380;2023-07-20T09:15:09;25.20;49.50
4209;DHT22;36320;48.860;2.380;2023-07-20T09:17:39;24.90;49.70
4209;DHT22;36320;48.860;2.380;2023-07-20T09:20:14;25.00;49.90
4209;DHT22;36320;48.860;2.380;2023-07-20T09:22:42;25.20;49.90
4209;DHT22;36320;48.860;2.380;2023-07-20T09:25:16;25.10;49.50
4209;DHT22;36320;48.860;2.380;2023-07-20T09:27:47;25.20;49.30
4209;DHT22;36320;48.860;2.380;2023-07-20T09:30:14;25.30;48.00
4209;DHT22;36320;48.860;2.380;2023-07-20T09:32:49;25.10;48.00
4209;DHT22;36320;48.860;2.380;2023-07-20T09:35:20;25.10;48.30
4209;DHT22;36320;48.860;2.380;2023-07-20T09:37:59;25.20;48.10
4209;DHT22;36320;48.860;2.380;2023-07-20T09:40:27;25.30;47.80
4209;DHT22;36320;48.860;2.380;2023-07-20T09:42:55;25.00;48.40
4209;DHT22;36320;48.860;2.380;2023-07-20T09:45:34;24.90;49.20
4209;DHT22;36320;48.860;2.380;2023-07-20T09:48:06;24.80;49.40
4209;DHT22;36320;48.860;2.380;2023-07-20T09:50:33;25.00;49.40
4209;DHT22;36320;48.860;2.380;2023-07-20T09:53:01;25.10;49.20
4209;DHT22;36320;48.860;2.380;2023-07-20T09:55:30;25.60;48.90
4209;DHT22;36320;48.860;2.380;2023-07-20T09:57:59;26.00;48.20
4209;DHT22;36320;48.860;2.380;2023-07-20T10:00:25;26.30;47.70
4209;DHT22;36320;48.860;2.380;2023-07-20T10:02:52;26.50;47.20
4209;DHT22;36320;48.860;2.380;2023-07-20T10:05:19;26.70;46.60
4209;DHT22;36320;48.860;2.380;2023-07-20T10:07:48;26.30;46.30
4209;DHT22;36320;48.860;2.380;2023-07-20T10:10:15;26.30;46.10
4209;DHT22;36320;48.860;2.380;2023-07-20T10:12:42;26.00;46.00
4209;DHT22;36320;48.860;2.380;2023-07-20T10:15:23;25.80;46.00
4209;DHT22;36320;48.860;2.380;2023-07-20T10:20:32;26.30;45.30
4209;DHT22;36320;48.860;2.380;2023-07-20T10:22:59;26.40;45.10
4209;DHT22;36320;48.860;2.380;2023-07-20T10:25:28;26.00;45.20
4209;DHT22;36320;48.860;2.380;2023-07-20T10:27:55;25.80;45.80
4209;DHT22;36320;48.860;2.380;2023-07-20T10:30:22;25.80;46.10
4209;DHT22;36320;48.860;2.380;2023-07-20T10:32:50;25.70;46.10
4209;DHT22;36320;48.860;2.380;2023-07-20T10:35:17;25.90;46.30
4209;DHT22;36320;48.860;2.380;2023-07-20T10:37:59;26.00;46.00
4209;DHT22;36320;48.860;2.380;2023-07-20T10:40:33;26.10;45.70
4209;DHT22;36320;48.860;2.380;2023-07-20T10:43:06;26.10;45.00
4209;DHT22;36320;48.860;2.380;2023-07-20T10:45:57;26.20;44.80
4209;DHT22;36320;48.860;2.380;2023-07-20T10:48:24;26.20;44.40
4209;DHT22;36320;48.860;2.380;2023-07-20T10:51:10;26.20;44.30
4209;DHT22;36320;48.860;2.380;2023-07-20T10:53:36;26.10;44.00
4209;DHT22;36320;48.860;2.380;2023-07-20T10:56:12;26.10;43.80
4209;DHT22;36320;48.860;2.380;2023-07-20T10:58:41;26.10;43.60
4209;DHT22;36320;48.860;2.380;2023-07-20T11:01:09;26.10;43.50
4209;DHT22;36320;48.860;2.380;2023-07-20T11:03:39;26.20;43.70
4209;DHT22;36320;48.860;2.380;2023-07-20T11:09:10;26.10;43.10
4209;DHT22;36320;48.860;2.380;2023-07-20T11:11:44;26.10;43.00
4209;DHT22;36320;48.860;2.380;2023-07-20T11:14:23;26.10;42.80
4209;DHT22;36320;48.860;2.380;2023-07-20T11:16:51;26.10;42.50
4209;DHT22;36320;48.860;2.380;2023-07-20T11:19:22;26.20;42.40
4209;DHT22;36320;48.860;2.380;2023-07-20T11:21:57;26.20;42.10
4209;DHT22;36320;48.860;2.380;2023-07-20T11:24:24;26.20;41.80
4209;DHT22;36320;48.860;2.380;2023-07-20T11:26:56;26.30;41.50
4209;DHT22;36320;48.860;2.380;2023-07-20T11:29:24;26.40;41.30
4209;DHT22;36320;48.860;2.380;2023-07-20T11:31:53;26.40;41.00
4209;DHT22;36320;48.860;2.380;2023-07-20T11:34:20;26.40;40.60
4209;DHT22;36320;48.860;2.380;2023-07-20T11:36:49;26.40;40.50
4209;DHT22;36320;48.860;2.380;2023-07-20T11:39:22;26.50;40.30
4209;DHT22;36320;48.860;2.380;2023-07-20T11:41:53;26.60;40.20
4209;DHT22;36320;48.860;2.380;2023-07-20T11:44:26;26.50;39.90
4209;DHT22;36320;48.860;2.380;2023-07-20T11:47:12;26.70;40.00
4209;DHT22;36320;48.860;2.380;2023-07-20T11:49:43;26.70;40.10
4209;DHT22;36320;48.860;2.380;2023-07-20T11:52:16;26.70;40.00
4209;DHT22;36320;48.860;2.380;2023-07-20T11:54:43;26.70;39.90
4209;DHT22;36320;48.860;2.380;2023-07-20T11:57:19;26.80;39.90
4209;DHT22;36320;48.860;2.380;2023-07-20T11:59:58;26.70;39.60
4209;DHT22;36320;48.860;2.380;2023-07-20T12:02:27;26.70;39.40
4209;DHT22;36320;48.860;2.380;2023-07-20T12:04:54;26.70;39.10
4209;DHT22;36320;48.860;2.380;2023-07-20T12:07:22;26.80;39.10
4209;DHT22;36320;48.860;2.380;2023-07-20T12:10:08;26.90;39.00
4209;DHT22;36320;48.860;2.380;2023-07-20T12:12:41;27.00;38.80
4209;DHT22;36320;48.860;2.380;2023-07-20T12:15:24;27.00;38.60
4209;DHT22;36320;48.860;2.380;2023-07-20T12:17:52;27.10;38.50
4209;DHT22;36320;48.860;2.380;2023-07-20T12:20:32;27.10;38.20
4209;DHT22;36320;48.860;2.380;2023-07-20T12:23:19;27.10;37.80
4209;DHT22;36320;48.860;2.380;2023-07-20T12:25:46;27.10;37.40
4209;DHT22;36320;48.860;2.380;2023-07-20T12:28:14;27.20;37.30
4209;DHT22;36320;48.860;2.380;2023-07-20T12:30:41;27.20;37.20
4209;DHT22;36320;48.860;2.380;2023-07-20T12:33:07;27.20;36.80
4209;DHT22;36320;48.860;2.380;2023-07-20T12:35:43;27.20;36.10
4209;DHT22;36320;48.860;2.380;2023-07-20T12:38:09;27.20;35.90
4209;DHT22;36320;48.860;2.380;2023-07-20T12:40:35;27.30;35.80
4209;DHT22;36320;48.860;2.380;2023-07-20T12:43:05;27.30;35.70
4209;DHT22;36320;48.860;2.380;2023-07-20T12:45:32;27.40;35.40
4209;DHT22;36320;48.860;2.380;2023-07-20T12:47:58;27.40;35.20
4209;DHT22;36320;48.860;2.380;2023-07-20T12:50:25;27.40;35.30
4209;DHT22;36320;48.860;2.380;2023-07-20T12:52:50;27.30;35.30
4209;DHT22;36320;48.860;2.380;2023-07-20T12:55:16;27.30;35.10
4209;DHT22;36320;48.860;2.380;2023-07-20T12:57:43;27.30;35.30
4209;DHT22;36320;48.860;2.380;2023-07-20T13:00:10;27.30;35.40
4209;DHT22;36320;48.860;2.380;2023-07-20T13:02:37;27.40;35.50
4209;DHT22;36320;48.860;2.380;2023-07-20T13:05:03;27.40;35.50
4209;DHT22;36320;48.860;2.380;2023-07-20T13:07:37;27.50;35.30
4209;DHT22;36320;48.860;2.380;2023-07-20T13:10:04;27.50;35.10
4209;DHT22;36320;48.860;2.380;2023-07-20T13:12:31;27.60;35.10
4209;DHT22;36320;48.860;2.380;2023-07-20T13:14:58;27.60;35.00
4209;DHT22;36320;48.860;2.380;2023-07-20T13:17:28;27.60;34.90
4209;DHT22;36320;48.860;2.380;2023-07-20T13:19:54;27.60;34.80
4209;DHT22;36320;48.860;2.380;2023-07-20T13:22:22;27.50;34.80
4209;DHT22;36320;48.860;2.380;2023-07-20T13:24:50;27.50;34.90
4209;DHT22;36320;48.860;2.380;2023-07-20T13:27:17;27.60;34.90
4209;DHT22;36320;48.860;2.380;2023-07-20T13:29:43;27.60;34.90
4209;DHT22;36320;48.860;2.380;2023-07-20T13:32:09;27.70;34.90
4209;DHT22;36320;48.860;2.380;2023-07-20T13:34:38;27.70;34.70
4209;DHT22;36320;48.860;2.380;2023-07-20T13:37:04;27.80;34.50
4209;DHT22;36320;48.860;2.380;2023-07-20T13:39:30;27.80;34.40
4209;DHT22;36320;48.860;2.380;2023-07-20T13:41:56;27.90;34.50
4209;DHT22;36320;48.860;2.380;2023-07-20T13:44:25;27.90;34.30
4209;DHT22;36320;48.860;2.380;2023-07-20T13:46:52;27.90;34.30
4209;DHT22;36320;48.860;2.380;2023-07-20T13:49:18;27.90;34.30
4209;DHT22;36320;48.860;2.380;2023-07-20T13:51:44;28.00;34.20
4209;DHT22;36320;48.860;2.380;2023-07-20T13:54:10;27.90;34.00
4209;DHT22;36320;48.860;2.380;2023-07-20T13:56:37;27.90;34.00
4209;DHT22;36320;48.860;2.380;2023-07-20T13:59:05;28.00;34.00
4209;DHT22;36320;48.860;2.380;2023-07-20T14:01:31;28.00;33.80
4209;DHT22;36320;48.860;2.380;2023-07-20T14:04:00;28.00;33.80
4209;DHT22;36320;48.860;2.380;2023-07-20T14:06:26;28.10;33.90
4209;DHT22;36320;48.860;2.380;2023-07-20T14:08:52;27.90;33.70
4209;DHT22;36320;48.860;2.380;2023-07-20T14:11:18;28.10;33.90
4209;DHT22;36320;48.860;2.380;2023-07-20T14:13:44;28.10;34.00
4209;DHT22;36320;48.860;2.380;2023-07-20T14:16:10;28.20;34.00
4209;DHT22;36320;48.860;2.380;2023-07-20T14:18:36;28.30;34.00
4209;DHT22;36320;48.860;2.380;2023-07-20T14:21:02;28.30;34.00
4209;DHT22;36320;48.860;2.380;2023-07-20T14:23:30;28.30;33.90
4209;DHT22;36320;48.860;2.380;2023-07-20T14:25:56;28.30;33.70
4209;DHT22;36320;48.860;2.380;2023-07-20T14:28:21;28.30;34.30
4209;DHT22;36320;48.860;2.380;2023-07-20T14:30:47;29.10;34.00
4209;DHT22;36320;48.860;2.380;2023-07-20T14:33:13;28.40;33.50
4209;DHT22;36320;48.860;2.380;2023-07-20T14:35:38;28.40;33.60
4209;DHT22;36320;48.860;2.380;2023-07-20T14:38:04;28.40;33.40
4209;DHT22;36320;48.860;2.380;2023-07-20T14:40:30;28.50;33.60
4209;DHT22;36320;48.860;2.380;2023-07-20T14:42:56;28.60;33.70
4209;DHT22;36320;48.860;2.380;2023-07-20T14:45:22;28.60;33.60
4209;DHT22;36320;48.860;2.380;2023-07-20T14:47:47;28.60;34.20
4209;DHT22;36320;48.860;2.380;2023-07-20T14:50:19;28.60;34.10
4209;DHT22;36320;48.860;2.380;2023-07-20T14:52:46;28.60;33.40
4209;DHT22;36320;48.860;2.380;2023-07-20T14:55:12;28.60;33.50
4209;DHT22;36320;48.860;2.380;2023-07-20T14:57:37;28.60;33.50
4209;DHT22;36320;48.860;2.380;2023-07-20T15:00:05;28.70;33.40
4209;DHT22;36320;48.860;2.380;2023-07-20T15:02:37;28.70;33.50
4209;DHT22;36320;48.860;2.380;2023-07-20T15:05:03;28.70;33.60
4209;DHT22;36320;48.860;2.380;2023-07-20T15:07:30;28.70;33.50
4209;DHT22;36320;48.860;2.380;2023-07-20T15:09:55;28.70;33.60
4209;DHT22;36320;48.860;2.380;2023-07-20T15:12:21;28.80;33.60
4209;DHT22;36320;48.860;2.380;2023-07-20T15:15:05;28.80;33.50
4209;DHT22;36320;48.860;2.380;2023-07-20T15:17:31;28.80;33.40
4209;DHT22;36320;48.860;2.380;2023-07-20T15:19:59;28.80;33.40
4209;DHT22;36320;48.860;2.380;2023-07-20T15:22:25;28.80;33.20
4209;DHT22;36320;48.860;2.380;2023-07-20T15:24:50;28.90;33.10
4209;DHT22;36320;48.860;2.380;2023-07-20T15:27:16;28.80;32.90
4209;DHT22;36320;48.860;2.380;2023-07-20T15:29:42;28.70;32.90
4209;DHT22;36320;48.860;2.380;2023-07-20T15:32:09;28.70;33.10
4209;DHT22;36320;48.860;2.380;2023-07-20T15:34:36;28.70;33.20
4209;DHT22;36320;48.860;2.380;2023-07-20T15:37:02;28.60;33.10
4209;DHT22;36320;48.860;2.380;2023-07-20T15:39:32;28.70;33.20
4209;DHT22;36320;48.860;2.380;2023-07-20T15:41:57;28.60;33.10
4209;DHT22;36320;48.860;2.380;2023-07-20T15:44:23;28.60;33.10
4209;DHT22;36320;48.860;2.380;2023-07-20T15:46:49;28.50;33.00
4209;DHT22;36320;48.860;2.380;2023-07-20T15:49:17;28.50;33.20
4209;DHT22;36320;48.860;2.380;2023-07-20T15:51:43;28.70;33.40
4209;DHT22;36320;48.860;2.380;2023-07-20T15:54:12;28.60;33.30
4209;DHT22;36320;48.860;2.380;2023-07-20T15:56:39;28.60;33.20
4209;DHT22;36320;48.860;2.380;2023-07-20T15:59:05;28.60;33.20
4209;DHT22;36320;48.860;2.380;2023-07-20T16:01:31;28.50;33.10
4209;DHT22;36320;48.860;2.380;2023-07-20T16:03:58;28.50;32.90